sensor_id;sensor_type;location;lat;lon;timestamp;P1;durP1;ratioP1;P2;durP2;ratioP2
72049;SDS011;59916;50.914;5.888;2022-07-29T00:01:17;2.60;;;1.60;;
72049;SDS011;59916;50.914;5.888;2022-07-29T00:03:43;2.73;;;1.60;;
72049;SDS011;59916;50.914;5.888;2022-07-29T00:06:08;2.50;;;1.50;;
72049;SDS011;59916;50.914;5.888;2022-07-29T00:08:33;3.73;;;1.57;;
72049;SDS011;59916;50.914;5.888;2022-07-29T00:10:59;2.53;;;1.57;;
72049;SDS011;59916;50.914;5.888;2022-07-29T00:13:25;2.38;;;1.60;;
72049;SDS011;59916;50.914;5.888;2022-07-29T00:15:50;3.00;;;1.60;;
72049;SDS011;59916;50.914;5.888;2022-07-29T00:18:16;3.20;;;1.80;;
72049;SDS011;59916;50.914;5.888;2022-07-29T00:20:41;2.83;;;1.60;;
72049;SDS011;59916;50.914;5.888;2022-07-29T00:23:10;2.55;;;1.60;;
72049;SDS011;59916;50.914;5.888;2022-07-29T00:25:36;2.93;;;1.30;;
72049;SDS011;59916;50.914;5.888;2022-07-29T00:28:01;2.10;;;1.57;;
72049;SDS011;59916;50.914;5.888;2022-07-29T00:30:26;2.28;;;1.58;;
72049;SDS011;59916;50.914;5.888;2022-07-29T00:32:53;2.43;;;1.63;;
72049;SDS011;59916;50.914;5.888;2022-07-29T00:35:19;2.20;;;1.50;;
72049;SDS011;59916;50.914;5.888;2022-07-29T00:38:02;2.50;;;1.70;;
72049;SDS011;59916;50.914;5.888;2022-07-29T00:40:28;2.42;;;1.48;;
72049;SDS011;59916;50.914;5.888;2022-07-29T00:42:54;5.80;;;1.47;;
72049;SDS011;59916;50.914;5.888;2022-07-29T00:45:20;3.05;;;1.60;;
72049;SDS011;59916;50.914;5.888;2022-07-29T00:47:46;2.10;;;1.40;;
72049;SDS011;59916;50.914;5.888;2022-07-29T00:50:12;2.03;;;1.35;;
72049;SDS011;59916;50.914;5.888;2022-07-29T00:52:38;2.38;;;1.60;;
72049;SDS011;59916;50.914;5.888;2022-07-29T00:55:06;2.40;;;1.60;;
72049;SDS011;59916;50.914;5.888;2022-07-29T00:57:34;2.00;;;1.60;;
72049;SDS011;59916;50.914;5.888;2022-07-29T01:00:00;2.22;;;1.63;;
72049;SDS011;59916;50.914;5.888;2022-07-29T01:02:25;2.67;;;1.50;;
72049;SDS011;59916;50.914;5.888;2022-07-29T01:04:51;3.57;;;1.60;;
72049;SDS011;59916;50.914;5.888;2022-07-29T01:07:18;2.35;;;1.50;;
72049;SDS011;59916;50.914;5.888;2022-07-29T01:09:44;2.60;;;1.50;;
72049;SDS011;59916;50.914;5.888;2022-07-29T01:12:11;2.83;;;1.40;;
72049;SDS011;59916;50.914;5.888;2022-07-29T01:14:42;3.10;;;1.42;;
72049;SDS011;59916;50.914;5.888;2022-07-29T01:17:12;2.38;;;1.45;;
72049;SDS011;59916;50.914;5.888;2022-07-29T01:30:13;2.70;;;1.70;;
72049;SDS011;59916;50.914;5.888;2022-07-29T01:32:39;3.07;;;1.60;;
72049;SDS011;59916;50.914;5.888;2022-07-29T01:35:10;2.25;;;1.65;;
72049;SDS011;59916;50.914;5.888;2022-07-29T01:37:57;3.05;;;1.60;;
72049;SDS011;59916;50.914;5.888;2022-07-29T01:40:39;2.50;;;1.43;;
72049;SDS011;59916;50.914;5.888;2022-07-29T01:43:09;2.22;;;1.50;;
72049;SDS011;59916;50.914;5.888;2022-07-29T01:45:41;3.05;;;1.55;;
72049;SDS011;59916;50.914;5.888;2022-07-29T01:48:15;2.30;;;1.50;;
72049;SDS011;59916;50.914;5.888;2022-07-29T01:50:54;2.90;;;1.58;;
72049;SDS011;59916;50.914;5.888;2022-07-29T01:53:54;2.50;;;1.47;;
72049;SDS011;59916;50.914;5.888;2022-07-29T01:56:26;2.30;;;1.50;;
72049;SDS011;59916;50.914;5.888;2022-07-29T01:58:54;1.92;;;1.40;;
72049;SDS011;59916;50.914;5.888;2022-07-29T02:01:21;2.63;;;1.50;;
72049;SDS011;59916;50.914;5.888;2022-07-29T02:03:49;2.30;;;1.60;;
72049;SDS011;59916;50.914;5.888;2022-07-29T02:06:16;2.80;;;1.60;;
72049;SDS011;59916;50.914;5.888;2022-07-29T02:08:45;2.50;;;1.52;;
72049;SDS011;59916;50.914;5.888;2022-07-29T02:11:12;2.00;;;1.48;;
72049;SDS011;59916;50.914;5.888;2022-07-29T02:13:37;2.47;;;1.50;;
72049;SDS011;59916;50.914;5.888;2022-07-29T02:16:04;2.10;;;1.48;;
72049;SDS011;59916;50.914;5.888;2022-07-29T02:18:32;3.08;;;1.52;;
72049;SDS011;59916;50.914;5.888;2022-07-29T02:20:59;3.13;;;1.63;;
72049;SDS011;59916;50.914;5.888;2022-07-29T02:23:25;2.30;;;1.67;;
72049;SDS011;59916;50.914;5.888;2022-07-29T02:25:52;2.28;;;1.50;;
72049;SDS011;59916;50.914;5.888;2022-07-29T02:28:20;3.10;;;1.65;;
72049;SDS011;59916;50.914;5.888;2022-07-29T02:30:47;2.38;;;1.50;;
72049;SDS011;59916;50.914;5.888;2022-07-29T02:33:15;1.77;;;1.53;;
72049;SDS011;59916;50.914;5.888;2022-07-29T02:35:43;2.05;;;1.58;;
72049;SDS011;59916;50.914;5.888;2022-07-29T02:38:12;2.90;;;1.60;;
72049;SDS011;59916;50.914;5.888;2022-07-29T02:40:59;2.17;;;1.80;;
72049;SDS011;59916;50.914;5.888;2022-07-29T02:43:28;3.20;;;1.70;;
72049;SDS011;59916;50.914;5.888;2022-07-29T02:45:55;2.43;;;1.60;;
72049;SDS011;59916;50.914;5.888;2022-07-29T02:48:22;2.40;;;1.55;;
72049;SDS011;59916;50.914;5.888;2022-07-29T02:51:01;2.30;;;1.50;;
72049;SDS011;59916;50.914;5.888;2022-07-29T02:53:32;1.92;;;1.60;;
72049;SDS011;59916;50.914;5.888;2022-07-29T02:56:01;2.25;;;1.60;;
72049;SDS011;59916;50.914;5.888;2022-07-29T02:58:34;3.17;;;1.57;;
72049;SDS011;59916;50.914;5.888;2022-07-29T03:01:16;2.78;;;1.60;;
72049;SDS011;59916;50.914;5.888;2022-07-29T03:03:45;2.65;;;1.70;;
72049;SDS011;59916;50.914;5.888;2022-07-29T03:06:12;2.70;;;1.60;;
72049;SDS011;59916;50.914;5.888;2022-07-29T03:08:39;2.63;;;1.70;;
72049;SDS011;59916;50.914;5.888;2022-07-29T03:11:05;2.50;;;1.50;;
72049;SDS011;59916;50.914;5.888;2022-07-29T03:13:33;2.92;;;1.50;;
72049;SDS011;59916;50.914;5.888;2022-07-29T03:16:00;1.90;;;1.40;;
72049;SDS011;59916;50.914;5.888;2022-07-29T03:18:26;3.07;;;1.70;;
72049;SDS011;59916;50.914;5.888;2022-07-29T03:20:52;2.27;;;1.70;;
72049;SDS011;59916;50.914;5.888;2022-07-29T03:23:18;3.38;;;1.80;;
72049;SDS011;59916;50.914;5.888;2022-07-29T03:25:44;2.85;;;1.60;;
72049;SDS011;59916;50.914;5.888;2022-07-29T03:28:10;4.27;;;1.60;;
72049;SDS011;59916;50.914;5.888;2022-07-29T03:30:36;2.13;;;1.37;;
72049;SDS011;59916;50.914;5.888;2022-07-29T03:33:01;3.25;;;1.30;;
72049;SDS011;59916;50.914;5.888;2022-07-29T03:35:26;2.70;;;1.47;;
72049;SDS011;59916;50.914;5.888;2022-07-29T03:37:52;2.53;;;1.70;;
72049;SDS011;59916;50.914;5.888;2022-07-29T03:40:22;3.17;;;1.57;;
72049;SDS011;59916;50.914;5.888;2022-07-29T03:43:07;3.30;;;1.90;;
72049;SDS011;59916;50.914;5.888;2022-07-29T03:45:34;3.17;;;1.60;;
72049;SDS011;59916;50.914;5.888;2022-07-29T03:48:02;2.03;;;1.40;;
72049;SDS011;59916;50.914;5.888;2022-07-29T03:50:33;3.47;;;1.20;;
72049;SDS011;59916;50.914;5.888;2022-07-29T03:53:00;2.70;;;1.60;;
72049;SDS011;59916;50.914;5.888;2022-07-29T03:55:26;2.00;;;1.38;;
72049;SDS011;59916;50.914;5.888;2022-07-29T03:57:54;2.58;;;1.67;;
72049;SDS011;59916;50.914;5.888;2022-07-29T04:00:23;2.20;;;1.53;;
72049;SDS011;59916;50.914;5.888;2022-07-29T04:02:49;3.15;;;1.60;;
72049;SDS011;59916;50.914;5.888;2022-07-29T04:05:18;2.25;;;1.40;;
72049;SDS011;59916;50.914;5.888;2022-07-29T04:07:47;3.10;;;1.70;;
72049;SDS011;59916;50.914;5.888;2022-07-29T04:10:13;3.42;;;1.67;;
72049;SDS011;59916;50.914;5.888;2022-07-29T04:12:40;2.30;;;1.17;;
72049;SDS011;59916;50.914;5.888;2022-07-29T04:15:06;2.35;;;1.50;;
72049;SDS011;59916;50.914;5.888;2022-07-29T04:17:32;2.60;;;1.90;;
72049;SDS011;59916;50.914;5.888;2022-07-29T04:19:57;3.07;;;1.30;;
72049;SDS011;59916;50.914;5.888;2022-07-29T04:22:22;3.17;;;1.70;;
72049;SDS011;59916;50.914;5.888;2022-07-29T04:24:48;3.50;;;1.83;;
72049;SDS011;59916;50.914;5.888;2022-07-29T04:27:13;3.37;;;1.63;;
72049;SDS011;59916;50.914;5.888;2022-07-29T04:29:38;2.13;;;1.47;;
72049;SDS011;59916;50.914;5.888;2022-07-29T04:32:03;2.23;;;1.70;;
72049;SDS011;59916;50.914;5.888;2022-07-29T04:34:29;3.15;;;1.25;;
72049;SDS011;59916;50.914;5.888;2022-07-29T04:36:55;2.67;;;1.70;;
72049;SDS011;59916;50.914;5.888;2022-07-29T04:39:20;2.80;;;1.83;;
72049;SDS011;59916;50.914;5.888;2022-07-29T04:41:45;2.13;;;1.40;;
72049;SDS011;59916;50.914;5.888;2022-07-29T04:44:12;2.43;;;1.70;;
72049;SDS011;59916;50.914;5.888;2022-07-29T04:46:37;2.65;;;1.70;;
72049;SDS011;59916;50.914;5.888;2022-07-29T04:49:03;2.83;;;1.53;;
72049;SDS011;59916;50.914;5.888;2022-07-29T04:51:28;2.50;;;1.60;;
72049;SDS011;59916;50.914;5.888;2022-07-29T04:53:53;3.22;;;1.85;;
72049;SDS011;59916;50.914;5.888;2022-07-29T04:56:19;2.83;;;1.70;;
72049;SDS011;59916;50.914;5.888;2022-07-29T04:58:45;2.27;;;1.70;;
72049;SDS011;59916;50.914;5.888;2022-07-29T05:01:10;3.00;;;1.90;;
72049;SDS011;59916;50.914;5.888;2022-07-29T05:03:36;2.60;;;1.27;;
72049;SDS011;59916;50.914;5.888;2022-07-29T05:06:01;3.07;;;1.70;;
72049;SDS011;59916;50.914;5.888;2022-07-29T05:08:26;2.57;;;1.60;;
72049;SDS011;59916;50.914;5.888;2022-07-29T05:10:52;2.80;;;1.90;;
72049;SDS011;59916;50.914;5.888;2022-07-29T05:13:17;2.90;;;1.70;;
72049;SDS011;59916;50.914;5.888;2022-07-29T05:15:42;3.47;;;1.80;;
72049;SDS011;59916;50.914;5.888;2022-07-29T05:18:08;3.42;;;1.80;;
72049;SDS011;59916;50.914;5.888;2022-07-29T05:20:33;2.87;;;1.70;;
72049;SDS011;59916;50.914;5.888;2022-07-29T05:22:59;2.67;;;1.65;;
72049;SDS011;59916;50.914;5.888;2022-07-29T05:25:26;3.03;;;1.57;;
72049;SDS011;59916;50.914;5.888;2022-07-29T05:27:53;3.00;;;1.70;;
72049;SDS011;59916;50.914;5.888;2022-07-29T05:30:18;2.65;;;1.90;;
72049;SDS011;59916;50.914;5.888;2022-07-29T05:32:44;3.03;;;1.70;;
72049;SDS011;59916;50.914;5.888;2022-07-29T05:35:10;2.30;;;1.77;;
72049;SDS011;59916;50.914;5.888;2022-07-29T05:37:36;2.55;;;1.60;;
72049;SDS011;59916;50.914;5.888;2022-07-29T05:40:02;2.40;;;1.40;;
72049;SDS011;59916;50.914;5.888;2022-07-29T05:42:28;2.83;;;1.73;;
72049;SDS011;59916;50.914;5.888;2022-07-29T05:44:54;4.17;;;1.90;;
72049;SDS011;59916;50.914;5.888;2022-07-29T05:47:19;3.20;;;1.60;;
72049;SDS011;59916;50.914;5.888;2022-07-29T05:49:45;2.75;;;1.58;;
72049;SDS011;59916;50.914;5.888;2022-07-29T05:52:11;2.57;;;1.40;;
72049;SDS011;59916;50.914;5.888;2022-07-29T05:54:36;2.40;;;1.80;;
72049;SDS011;59916;50.914;5.888;2022-07-29T05:57:02;2.45;;;1.75;;
72049;SDS011;59916;50.914;5.888;2022-07-29T05:59:28;3.70;;;1.60;;
72049;SDS011;59916;50.914;5.888;2022-07-29T06:01:53;2.60;;;1.88;;
72049;SDS011;59916;50.914;5.888;2022-07-29T06:04:19;2.60;;;1.73;;
72049;SDS011;59916;50.914;5.888;2022-07-29T06:06:44;2.60;;;1.70;;
72049;SDS011;59916;50.914;5.888;2022-07-29T06:09:10;2.50;;;1.80;;
72049;SDS011;59916;50.914;5.888;2022-07-29T06:11:35;2.97;;;1.70;;
72049;SDS011;59916;50.914;5.888;2022-07-29T06:14:01;2.93;;;1.60;;
72049;SDS011;59916;50.914;5.888;2022-07-29T06:16:27;3.50;;;1.70;;
72049;SDS011;59916;50.914;5.888;2022-07-29T06:18:53;2.67;;;1.60;;
72049;SDS011;59916;50.914;5.888;2022-07-29T06:21:18;2.70;;;1.70;;
72049;SDS011;59916;50.914;5.888;2022-07-29T06:23:43;3.10;;;1.60;;
72049;SDS011;59916;50.914;5.888;2022-07-29T06:26:10;3.27;;;1.80;;
72049;SDS011;59916;50.914;5.888;2022-07-29T06:28:35;2.97;;;1.70;;
72049;SDS011;59916;50.914;5.888;2022-07-29T06:31:01;2.40;;;1.57;;
72049;SDS011;59916;50.914;5.888;2022-07-29T06:33:26;2.70;;;1.90;;
72049;SDS011;59916;50.914;5.888;2022-07-29T06:35:52;2.70;;;1.80;;
72049;SDS011;59916;50.914;5.888;2022-07-29T06:38:17;3.33;;;1.90;;
72049;SDS011;59916;50.914;5.888;2022-07-29T06:40:43;1.73;;;1.40;;
72049;SDS011;59916;50.914;5.888;2022-07-29T06:43:31;2.47;;;1.48;;
72049;SDS011;59916;50.914;5.888;2022-07-29T06:46:07;3.38;;;1.83;;
72049;SDS011;59916;50.914;5.888;2022-07-29T06:48:35;3.60;;;1.80;;
72049;SDS011;59916;50.914;5.888;2022-07-29T06:51:04;2.60;;;1.83;;
72049;SDS011;59916;50.914;5.888;2022-07-29T06:53:30;2.40;;;1.80;;
72049;SDS011;59916;50.914;5.888;2022-07-29T06:55:57;2.90;;;1.70;;
72049;SDS011;59916;50.914;5.888;2022-07-29T06:58:24;2.30;;;1.58;;
72049;SDS011;59916;50.914;5.888;2022-07-29T07:00:50;3.47;;;1.85;;
72049;SDS011;59916;50.914;5.888;2022-07-29T07:03:16;2.27;;;1.53;;
72049;SDS011;59916;50.914;5.888;2022-07-29T07:05:42;2.67;;;1.83;;
72049;SDS011;59916;50.914;5.888;2022-07-29T07:08:07;3.13;;;1.97;;
72049;SDS011;59916;50.914;5.888;2022-07-29T07:10:33;2.22;;;1.70;;
72049;SDS011;59916;50.914;5.888;2022-07-29T07:12:59;2.83;;;1.50;;
72049;SDS011;59916;50.914;5.888;2022-07-29T07:15:25;3.78;;;1.50;;
72049;SDS011;59916;50.914;5.888;2022-07-29T07:17:50;2.60;;;1.70;;
72049;SDS011;59916;50.914;5.888;2022-07-29T07:20:16;2.40;;;1.77;;
72049;SDS011;59916;50.914;5.888;2022-07-29T07:22:42;3.05;;;1.75;;
72049;SDS011;59916;50.914;5.888;2022-07-29T07:25:07;2.87;;;1.80;;
72049;SDS011;59916;50.914;5.888;2022-07-29T07:27:33;3.45;;;2.28;;
72049;SDS011;59916;50.914;5.888;2022-07-29T07:29:59;3.03;;;1.60;;
72049;SDS011;59916;50.914;5.888;2022-07-29T07:32:24;3.10;;;1.97;;
72049;SDS011;59916;50.914;5.888;2022-07-29T07:34:49;3.90;;;2.23;;
72049;SDS011;59916;50.914;5.888;2022-07-29T07:37:15;3.03;;;1.90;;
72049;SDS011;59916;50.914;5.888;2022-07-29T07:39:41;4.87;;;2.70;;
72049;SDS011;59916;50.914;5.888;2022-07-29T07:42:06;7.00;;;3.22;;
72049;SDS011;59916;50.914;5.888;2022-07-29T07:44:31;7.93;;;3.20;;
72049;SDS011;59916;50.914;5.888;2022-07-29T07:46:57;5.80;;;3.30;;
72049;SDS011;59916;50.914;5.888;2022-07-29T07:49:22;7.30;;;3.50;;
72049;SDS011;59916;50.914;5.888;2022-07-29T07:51:48;6.15;;;3.17;;
72049;SDS011;59916;50.914;5.888;2022-07-29T07:54:13;6.87;;;3.40;;
72049;SDS011;59916;50.914;5.888;2022-07-29T07:56:39;6.87;;;3.50;;
72049;SDS011;59916;50.914;5.888;2022-07-29T07:59:04;6.83;;;3.07;;
72049;SDS011;59916;50.914;5.888;2022-07-29T08:01:29;5.60;;;2.80;;
72049;SDS011;59916;50.914;5.888;2022-07-29T08:03:55;6.03;;;3.10;;
72049;SDS011;59916;50.914;5.888;2022-07-29T08:06:20;8.73;;;3.17;;
72049;SDS011;59916;50.914;5.888;2022-07-29T08:08:45;6.17;;;3.17;;
72049;SDS011;59916;50.914;5.888;2022-07-29T08:11:11;7.13;;;3.27;;
72049;SDS011;59916;50.914;5.888;2022-07-29T08:13:36;6.17;;;3.07;;
72049;SDS011;59916;50.914;5.888;2022-07-29T08:16:02;6.43;;;3.38;;
72049;SDS011;59916;50.914;5.888;2022-07-29T08:18:38;5.88;;;3.03;;
72049;SDS011;59916;50.914;5.888;2022-07-29T08:21:05;6.03;;;3.25;;
72049;SDS011;59916;50.914;5.888;2022-07-29T08:23:31;4.73;;;3.07;;
72049;SDS011;59916;50.914;5.888;2022-07-29T08:26:04;5.03;;;2.75;;
72049;SDS011;59916;50.914;5.888;2022-07-29T08:28:30;8.30;;;3.45;;
72049;SDS011;59916;50.914;5.888;2022-07-29T08:30:55;7.80;;;2.90;;
72049;SDS011;59916;50.914;5.888;2022-07-29T08:33:21;7.33;;;2.70;;
72049;SDS011;59916;50.914;5.888;2022-07-29T08:35:46;5.67;;;2.80;;
72049;SDS011;59916;50.914;5.888;2022-07-29T08:38:11;6.23;;;3.27;;
72049;SDS011;59916;50.914;5.888;2022-07-29T08:40:37;6.20;;;2.70;;
72049;SDS011;59916;50.914;5.888;2022-07-29T08:43:06;14.10;;;4.20;;
72049;SDS011;59916;50.914;5.888;2022-07-29T08:48:07;13.57;;;4.28;;
72049;SDS011;59916;50.914;5.888;2022-07-29T08:50:34;9.43;;;3.70;;
72049;SDS011;59916;50.914;5.888;2022-07-29T08:53:01;15.82;;;3.95;;
72049;SDS011;59916;50.914;5.888;2022-07-29T08:55:27;9.70;;;3.90;;
72049;SDS011;59916;50.914;5.888;2022-07-29T08:57:53;8.18;;;3.65;;
72049;SDS011;59916;50.914;5.888;2022-07-29T09:00:19;10.20;;;4.20;;
72049;SDS011;59916;50.914;5.888;2022-07-29T09:02:47;6.60;;;2.97;;
72049;SDS011;59916;50.914;5.888;2022-07-29T09:05:16;7.75;;;3.35;;
72049;SDS011;59916;50.914;5.888;2022-07-29T09:07:42;6.70;;;3.40;;
72049;SDS011;59916;50.914;5.888;2022-07-29T09:10:09;7.97;;;3.63;;
72049;SDS011;59916;50.914;5.888;2022-07-29T09:12:35;8.87;;;4.00;;
72049;SDS011;59916;50.914;5.888;2022-07-29T09:15:00;6.20;;;3.53;;
72049;SDS011;59916;50.914;5.888;2022-07-29T09:17:41;8.30;;;3.63;;
72049;SDS011;59916;50.914;5.888;2022-07-29T09:20:12;6.30;;;3.53;;
72049;SDS011;59916;50.914;5.888;2022-07-29T09:22:40;10.30;;;3.42;;
72049;SDS011;59916;50.914;5.888;2022-07-29T09:25:06;9.00;;;3.83;;
72049;SDS011;59916;50.914;5.888;2022-07-29T09:27:32;7.68;;;3.85;;
72049;SDS011;59916;50.914;5.888;2022-07-29T09:30:03;9.30;;;3.90;;
72049;SDS011;59916;50.914;5.888;2022-07-29T09:32:29;5.88;;;3.35;;
72049;SDS011;59916;50.914;5.888;2022-07-29T09:35:13;8.10;;;3.57;;
72049;SDS011;59916;50.914;5.888;2022-07-29T09:37:40;8.85;;;3.63;;
72049;SDS011;59916;50.914;5.888;2022-07-29T09:40:38;7.03;;;3.70;;
72049;SDS011;59916;50.914;5.888;2022-07-29T09:42:56;9.60;;;3.70;;
72049;SDS011;59916;50.914;5.888;2022-07-29T09:45:29;8.40;;;3.60;;
72049;SDS011;59916;50.914;5.888;2022-07-29T09:47:56;9.30;;;3.50;;
72049;SDS011;59916;50.914;5.888;2022-07-29T09:50:35;9.20;;;3.92;;
72049;SDS011;59916;50.914;5.888;2022-07-29T09:53:01;5.72;;;3.53;;
72049;SDS011;59916;50.914;5.888;2022-07-29T09:55:26;7.20;;;3.67;;
72049;SDS011;59916;50.914;5.888;2022-07-29T09:57:52;8.60;;;3.60;;
72049;SDS011;59916;50.914;5.888;2022-07-29T10:00:19;9.43;;;4.03;;
72049;SDS011;59916;50.914;5.888;2022-07-29T10:02:46;7.80;;;3.57;;
72049;SDS011;59916;50.914;5.888;2022-07-29T10:05:21;8.70;;;4.13;;
72049;SDS011;59916;50.914;5.888;2022-07-29T10:07:50;6.78;;;3.90;;
72049;SDS011;59916;50.914;5.888;2022-07-29T10:10:23;9.05;;;3.65;;
72049;SDS011;59916;50.914;5.888;2022-07-29T10:12:54;8.27;;;3.80;;
72049;SDS011;59916;50.914;5.888;2022-07-29T10:15:21;6.77;;;3.77;;
72049;SDS011;59916;50.914;5.888;2022-07-29T10:17:48;9.13;;;3.70;;
72049;SDS011;59916;50.914;5.888;2022-07-29T10:20:14;8.65;;;4.05;;
72049;SDS011;59916;50.914;5.888;2022-07-29T10:22:40;7.65;;;4.05;;
72049;SDS011;59916;50.914;5.888;2022-07-29T10:25:06;6.63;;;3.70;;
72049;SDS011;59916;50.914;5.888;2022-07-29T10:27:34;8.32;;;3.80;;
72049;SDS011;59916;50.914;5.888;2022-07-29T10:30:01;6.88;;;3.90;;
72049;SDS011;59916;50.914;5.888;2022-07-29T10:43:53;7.50;;;3.20;;
72049;SDS011;59916;50.914;5.888;2022-07-29T10:46:21;8.98;;;3.72;;
72049;SDS011;59916;50.914;5.888;2022-07-29T10:59:45;6.95;;;2.95;;
72049;SDS011;59916;50.914;5.888;2022-07-29T11:07:24;7.37;;;3.37;;
72049;SDS011;59916;50.914;5.888;2022-07-29T11:22:57;5.07;;;3.00;;
72049;SDS011;59916;50.914;5.888;2022-07-29T11:25:23;6.43;;;3.17;;
72049;SDS011;59916;50.914;5.888;2022-07-29T11:27:49;6.50;;;3.55;;
72049;SDS011;59916;50.914;5.888;2022-07-29T11:30:16;6.30;;;3.17;;
72049;SDS011;59916;50.914;5.888;2022-07-29T11:32:42;6.13;;;3.50;;
72049;SDS011;59916;50.914;5.888;2022-07-29T11:35:16;6.38;;;3.10;;
72049;SDS011;59916;50.914;5.888;2022-07-29T11:37:44;7.20;;;3.60;;
72049;SDS011;59916;50.914;5.888;2022-07-29T11:40:29;5.25;;;2.85;;
72049;SDS011;59916;50.914;5.888;2022-07-29T11:42:54;7.57;;;3.50;;
72049;SDS011;59916;50.914;5.888;2022-07-29T11:45:20;5.47;;;3.00;;
72049;SDS011;59916;50.914;5.888;2022-07-29T11:50:17;6.28;;;3.38;;
72049;SDS011;59916;50.914;5.888;2022-07-29T11:52:53;7.68;;;3.30;;
72049;SDS011;59916;50.914;5.888;2022-07-29T11:55:21;5.83;;;3.23;;
72049;SDS011;59916;50.914;5.888;2022-07-29T11:57:48;5.53;;;3.10;;
72049;SDS011;59916;50.914;5.888;2022-07-29T12:00:25;5.13;;;3.33;;
72049;SDS011;59916;50.914;5.888;2022-07-29T12:02:53;4.78;;;2.88;;
72049;SDS011;59916;50.914;5.888;2022-07-29T12:05:20;7.10;;;3.30;;
72049;SDS011;59916;50.914;5.888;2022-07-29T12:07:46;5.68;;;3.58;;
72049;SDS011;59916;50.914;5.888;2022-07-29T12:10:12;6.55;;;3.40;;
72049;SDS011;59916;50.914;5.888;2022-07-29T12:12:38;7.53;;;3.60;;
72049;SDS011;59916;50.914;5.888;2022-07-29T12:15:25;6.83;;;3.53;;
72049;SDS011;59916;50.914;5.888;2022-07-29T12:17:51;6.97;;;3.25;;
72049;SDS011;59916;50.914;5.888;2022-07-29T12:20:24;5.55;;;2.67;;
72049;SDS011;59916;50.914;5.888;2022-07-29T12:22:51;5.17;;;3.03;;
72049;SDS011;59916;50.914;5.888;2022-07-29T12:25:19;6.07;;;3.40;;
72049;SDS011;59916;50.914;5.888;2022-07-29T12:27:44;4.45;;;3.08;;
72049;SDS011;59916;50.914;5.888;2022-07-29T12:30:11;5.60;;;3.23;;
72049;SDS011;59916;50.914;5.888;2022-07-29T12:32:45;4.78;;;3.25;;
72049;SDS011;59916;50.914;5.888;2022-07-29T12:35:13;6.53;;;2.90;;
72049;SDS011;59916;50.914;5.888;2022-07-29T12:37:41;3.80;;;2.60;;
72049;SDS011;59916;50.914;5.888;2022-07-29T12:40:08;4.25;;;2.85;;
72049;SDS011;59916;50.914;5.888;2022-07-29T12:42:35;4.78;;;3.20;;
72049;SDS011;59916;50.914;5.888;2022-07-29T12:45:02;5.32;;;2.70;;
72049;SDS011;59916;50.914;5.888;2022-07-29T12:47:28;4.07;;;2.90;;
72049;SDS011;59916;50.914;5.888;2022-07-29T12:50:10;5.13;;;2.90;;
72049;SDS011;59916;50.914;5.888;2022-07-29T12:52:39;6.38;;;3.20;;
72049;SDS011;59916;50.914;5.888;2022-07-29T12:55:04;5.50;;;3.13;;
72049;SDS011;59916;50.914;5.888;2022-07-29T12:57:30;3.97;;;2.80;;
72049;SDS011;59916;50.914;5.888;2022-07-29T13:02:28;5.22;;;3.17;;
72049;SDS011;59916;50.914;5.888;2022-07-29T13:04:57;4.50;;;3.07;;
72049;SDS011;59916;50.914;5.888;2022-07-29T13:07:25;4.60;;;3.35;;
72049;SDS011;59916;50.914;5.888;2022-07-29T13:09:52;4.95;;;3.20;;
72049;SDS011;59916;50.914;5.888;2022-07-29T13:12:17;5.17;;;3.40;;
72049;SDS011;59916;50.914;5.888;2022-07-29T13:14:44;5.20;;;3.00;;
72049;SDS011;59916;50.914;5.888;2022-07-29T13:17:12;5.03;;;3.20;;
72049;SDS011;59916;50.914;5.888;2022-07-29T13:19:49;4.75;;;3.05;;
72049;SDS011;59916;50.914;5.888;2022-07-29T13:22:16;4.55;;;2.85;;
72049;SDS011;59916;50.914;5.888;2022-07-29T13:27:18;4.13;;;2.78;;
72049;SDS011;59916;50.914;5.888;2022-07-29T13:29:45;6.73;;;3.10;;
72049;SDS011;59916;50.914;5.888;2022-07-29T13:32:11;4.60;;;3.15;;
72049;SDS011;59916;50.914;5.888;2022-07-29T13:34:37;3.67;;;3.03;;
72049;SDS011;59916;50.914;5.888;2022-07-29T13:37:02;4.43;;;3.00;;
72049;SDS011;59916;50.914;5.888;2022-07-29T13:39:28;4.80;;;3.17;;
72049;SDS011;59916;50.914;5.888;2022-07-29T13:41:53;4.53;;;2.67;;
72049;SDS011;59916;50.914;5.888;2022-07-29T13:44:18;5.83;;;3.40;;
72049;SDS011;59916;50.914;5.888;2022-07-29T13:46:44;4.77;;;3.23;;
72049;SDS011;59916;50.914;5.888;2022-07-29T13:49:09;5.13;;;3.40;;
72049;SDS011;59916;50.914;5.888;2022-07-29T13:51:36;4.03;;;3.00;;
72049;SDS011;59916;50.914;5.888;2022-07-29T13:54:01;5.20;;;3.07;;
72049;SDS011;59916;50.914;5.888;2022-07-29T13:56:27;3.67;;;2.65;;
72049;SDS011;59916;50.914;5.888;2022-07-29T13:58:53;4.17;;;2.70;;
72049;SDS011;59916;50.914;5.888;2022-07-29T14:01:18;4.00;;;2.73;;
72049;SDS011;59916;50.914;5.888;2022-07-29T14:03:43;5.97;;;3.00;;
72049;SDS011;59916;50.914;5.888;2022-07-29T14:06:09;5.05;;;2.95;;
72049;SDS011;59916;50.914;5.888;2022-07-29T14:08:34;4.27;;;2.90;;
72049;SDS011;59916;50.914;5.888;2022-07-29T14:10:59;4.97;;;2.93;;
72049;SDS011;59916;50.914;5.888;2022-07-29T14:13:25;4.10;;;2.77;;
72049;SDS011;59916;50.914;5.888;2022-07-29T14:15:50;5.70;;;2.90;;
72049;SDS011;59916;50.914;5.888;2022-07-29T14:18:15;3.97;;;2.70;;
72049;SDS011;59916;50.914;5.888;2022-07-29T14:20:41;4.57;;;2.93;;
72049;SDS011;59916;50.914;5.888;2022-07-29T14:23:06;4.03;;;2.70;;
72049;SDS011;59916;50.914;5.888;2022-07-29T14:25:31;4.13;;;2.83;;
72049;SDS011;59916;50.914;5.888;2022-07-29T14:27:57;4.97;;;3.10;;
72049;SDS011;59916;50.914;5.888;2022-07-29T14:30:22;4.93;;;2.87;;
72049;SDS011;59916;50.914;5.888;2022-07-29T14:32:47;4.83;;;3.00;;
72049;SDS011;59916;50.914;5.888;2022-07-29T14:35:12;5.17;;;3.03;;
72049;SDS011;59916;50.914;5.888;2022-07-29T14:37:38;4.73;;;2.83;;
72049;SDS011;59916;50.914;5.888;2022-07-29T14:40:03;5.10;;;2.70;;
72049;SDS011;59916;50.914;5.888;2022-07-29T14:42:29;8.18;;;2.70;;
72049;SDS011;59916;50.914;5.888;2022-07-29T14:44:56;5.55;;;2.58;;
72049;SDS011;59916;50.914;5.888;2022-07-29T14:47:21;4.37;;;3.30;;
72049;SDS011;59916;50.914;5.888;2022-07-29T14:49:48;3.80;;;3.00;;
72049;SDS011;59916;50.914;5.888;2022-07-29T14:52:13;3.92;;;3.00;;
72049;SDS011;59916;50.914;5.888;2022-07-29T14:54:41;4.87;;;3.40;;
72049;SDS011;59916;50.914;5.888;2022-07-29T14:57:07;4.38;;;2.97;;
72049;SDS011;59916;50.914;5.888;2022-07-29T14:59:32;4.50;;;3.07;;
72049;SDS011;59916;50.914;5.888;2022-07-29T15:01:58;4.13;;;3.00;;
72049;SDS011;59916;50.914;5.888;2022-07-29T15:04:23;4.77;;;3.00;;
72049;SDS011;59916;50.914;5.888;2022-07-29T15:06:48;5.00;;;3.30;;
72049;SDS011;59916;50.914;5.888;2022-07-29T15:09:14;5.87;;;3.57;;
72049;SDS011;59916;50.914;5.888;2022-07-29T15:11:39;4.28;;;3.10;;
72049;SDS011;59916;50.914;5.888;2022-07-29T15:14:05;4.40;;;3.10;;
72049;SDS011;59916;50.914;5.888;2022-07-29T15:16:30;4.28;;;3.33;;
72049;SDS011;59916;50.914;5.888;2022-07-29T15:18:56;5.13;;;3.10;;
72049;SDS011;59916;50.914;5.888;2022-07-29T15:21:22;4.80;;;3.13;;
72049;SDS011;59916;50.914;5.888;2022-07-29T15:23:50;4.32;;;3.03;;
72049;SDS011;59916;50.914;5.888;2022-07-29T15:26:16;4.60;;;3.50;;
72049;SDS011;59916;50.914;5.888;2022-07-29T15:28:42;4.85;;;3.50;;
72049;SDS011;59916;50.914;5.888;2022-07-29T15:31:08;5.50;;;3.40;;
72049;SDS011;59916;50.914;5.888;2022-07-29T15:33:34;5.85;;;3.60;;
72049;SDS011;59916;50.914;5.888;2022-07-29T15:35:59;5.37;;;3.67;;
72049;SDS011;59916;50.914;5.888;2022-07-29T15:38:24;6.07;;;3.20;;
72049;SDS011;59916;50.914;5.888;2022-07-29T15:40:49;5.47;;;3.70;;
72049;SDS011;59916;50.914;5.888;2022-07-29T15:43:15;5.57;;;3.80;;
72049;SDS011;59916;50.914;5.888;2022-07-29T15:45:41;5.07;;;3.50;;
72049;SDS011;59916;50.914;5.888;2022-07-29T15:48:27;4.78;;;3.45;;
72049;SDS011;59916;50.914;5.888;2022-07-29T15:50:52;6.33;;;3.40;;